Time;durP1;ratioP1;P1;durP2;ratioP2;P2;SDS_P1;SDS_P2;PMS_P1;PMS_P2;Temp;Humidity;BMP_temperature;BMP_pressure;BME280_temperature;BME280_humidity;BME280_pressure;Samples;Min_cycle;Max_cycle;Signal;HPM_P1;HPM_P2
2023/03/17 00:01:37;;;;;;;16.30;4.70;;;;;;;;;;4956187;28;20022;-68
2023/03/17 00:04:05;;;;;;;14.93;4.50;;;;;;;;;;4960671;28;20038;-69
2023/03/17 00:06:33;;;;;;;14.73;3.72;;;;;;;;;;4955092;28;20507;-66
2023/03/17 00:09:01;;;;;;;14.38;3.80;;;;;;;;;;4942963;28;20515;-69
2023/03/17 00:11:28;;;;;;;13.80;3.03;;;;;;;;;;4955964;28;20031;-68
2023/03/17 00:13:56;;;;;;;12.02;2.92;;;;;;;;;;4958367;28;20063;-68
2023/03/17 00:16:27;;;;;;;12.73;2.85;;;;;;;;;;4940909;28;20413;-68
2023/03/17 00:18:55;;;;;;;13.15;2.97;;;;;;;;;;4959507;28;20284;-69
2023/03/17 00:21:25;;;;;;;12.00;2.90;;;;;;;;;;4953937;28;20065;-67
2023/03/17 00:23:53;;;;;;;10.75;2.53;;;;;;;;;;4943792;28;20089;-67
2023/03/17 00:26:21;;;;;;;13.00;2.83;;;;;;;;;;4955570;28;20432;-67
2023/03/17 00:28:47;;;;;;;11.55;2.53;;;;;;;;;;4957284;28;20034;-67
2023/03/17 00:31:16;;;;;;;12.13;2.70;;;;;;;;;;4957150;28;20385;-67
2023/03/17 00:33:45;;;;;;;12.20;2.75;;;;;;;;;;4958745;28;20031;-66
2023/03/17 00:36:18;;;;;;;10.85;2.38;;;;;;;;;;4959295;28;20113;-67
2023/03/17 00:38:45;;;;;;;12.23;2.78;;;;;;;;;;4956830;28;20040;-67
2023/03/17 00:41:13;;;;;;;10.48;2.58;;;;;;;;;;4958200;28;20125;-67
2023/03/17 00:43:40;;;;;;;12.38;2.65;;;;;;;;;;4955290;28;20444;-67
2023/03/17 00:46:16;;;;;;;16.27;2.90;;;;;;;;;;4955570;28;20042;-67
2023/03/17 00:48:44;;;;;;;11.27;2.63;;;;;;;;;;4951951;28;20041;-66
2023/03/17 00:51:12;;;;;;;11.13;2.78;;;;;;;;;;4957613;28;20034;-67
2023/03/17 00:53:40;;;;;;;13.88;3.17;;;;;;;;;;4953759;28;20518;-67
2023/03/17 00:56:17;;;;;;;12.50;2.88;;;;;;;;;;4958189;28;20022;-67
2023/03/17 00:58:46;;;;;;;14.50;3.55;;;;;;;;;;4941698;28;20027;-67
2023/03/17 01:01:14;;;;;;;12.00;3.17;;;;;;;;;;4959749;28;20457;-67
2023/03/17 01:03:42;;;;;;;13.15;3.30;;;;;;;;;;4952649;28;20580;-66
2023/03/17 01:06:11;;;;;;;12.40;3.13;;;;;;;;;;4957437;28;20038;-67
2023/03/17 01:08:39;;;;;;;11.23;3.20;;;;;;;;;;4956357;28;23599;-67
2023/03/17 01:11:13;;;;;;;16.85;4.38;;;;;;;;;;4943476;28;20037;-67
2023/03/17 01:13:41;;;;;;;16.23;4.95;;;;;;;;;;4956959;28;20055;-67
2023/03/17 01:16:11;;;;;;;17.60;5.53;;;;;;;;;;4961321;28;20400;-68
2023/03/17 01:18:39;;;;;;;28.45;9.05;;;;;;;;;;4955513;28;21187;-67
2023/03/17 01:21:08;;;;;;;25.30;8.88;;;;;;;;;;4961028;28;20030;-67
2023/03/17 01:23:36;;;;;;;27.98;10.13;;;;;;;;;;4937383;28;20567;-66
2023/03/17 01:26:05;;;;;;;26.58;9.48;;;;;;;;;;4959118;28;20570;-67
2023/03/17 01:28:32;;;;;;;28.75;9.25;;;;;;;;;;4955738;28;20046;-67
2023/03/17 01:31:01;;;;;;;32.25;10.20;;;;;;;;;;4960790;28;20054;-67
2023/03/17 01:33:28;;;;;;;24.17;7.90;;;;;;;;;;4953072;28;20282;-67
2023/03/17 01:35:56;;;;;;;20.17;6.15;;;;;;;;;;4959879;28;20073;-67
2023/03/17 01:38:23;;;;;;;23.83;7.30;;;;;;;;;;4955924;28;20034;-68
2023/03/17 01:40:52;;;;;;;26.65;7.25;;;;;;;;;;4944484;28;20474;-67
2023/03/17 01:43:28;;;;;;;26.88;8.77;;;;;;;;;;4938915;28;20046;-68
2023/03/17 01:46:12;;;;;;;22.80;7.27;;;;;;;;;;4956581;28;20035;-66
2023/03/17 01:48:41;;;;;;;21.75;7.13;;;;;;;;;;4956418;28;20674;-66
2023/03/17 01:51:10;;;;;;;16.60;5.18;;;;;;;;;;4962451;28;20018;-66
2023/03/17 01:53:39;;;;;;;16.15;3.95;;;;;;;;;;4943345;28;20037;-66
2023/03/17 01:56:07;;;;;;;16.05;3.80;;;;;;;;;;4959579;28;20467;-66
2023/03/17 01:58:34;;;;;;;13.73;3.25;;;;;;;;;;4942939;28;20081;-66
2023/03/17 02:01:02;;;;;;;13.40;2.85;;;;;;;;;;4954336;28;20031;-68
2023/03/17 02:03:29;;;;;;;12.30;2.60;;;;;;;;;;4953665;28;20034;-68
2023/03/17 02:05:57;;;;;;;8.32;1.90;;;;;;;;;;4954723;28;20038;-68
2023/03/17 02:08:26;;;;;;;10.38;2.10;;;;;;;;;;4953282;28;20080;-69
2023/03/17 02:10:55;;;;;;;10.88;2.00;;;;;;;;;;4958910;28;20031;-69
2023/03/17 02:13:23;;;;;;;10.00;1.95;;;;;;;;;;4953125;28;20052;-68
2023/03/17 02:15:51;;;;;;;9.27;1.88;;;;;;;;;;4941424;28;20084;-68
2023/03/17 02:18:20;;;;;;;11.48;2.25;;;;;;;;;;4954889;28;20140;-68
2023/03/17 02:20:49;;;;;;;8.73;2.00;;;;;;;;;;4960967;28;20484;-68
2023/03/17 02:23:19;;;;;;;13.23;2.47;;;;;;;;;;4956226;28;20039;-67
2023/03/17 02:25:48;;;;;;;9.55;1.95;;;;;;;;;;4939395;28;20525;-67
2023/03/17 02:28:22;;;;;;;11.05;2.03;;;;;;;;;;4956253;28;20130;-67
2023/03/17 02:30:49;;;;;;;12.07;2.40;;;;;;;;;;4959651;28;20117;-67
2023/03/17 02:33:17;;;;;;;9.18;2.00;;;;;;;;;;4956113;28;20050;-66
2023/03/17 02:35:45;;;;;;;10.93;2.35;;;;;;;;;;4959079;28;20031;-67
2023/03/17 02:38:12;;;;;;;10.32;2.05;;;;;;;;;;4927795;28;20026;-66
2023/03/17 02:40:40;;;;;;;9.77;2.00;;;;;;;;;;4960464;28;20299;-67
2023/03/17 02:43:07;;;;;;;13.48;1.98;;;;;;;;;;4959408;28;20033;-66
2023/03/17 02:45:35;;;;;;;9.88;2.15;;;;;;;;;;4957257;28;20030;-67
2023/03/17 02:48:02;;;;;;;9.05;1.63;;;;;;;;;;4962610;28;20029;-67
2023/03/17 02:50:30;;;;;;;11.10;2.20;;;;;;;;;;4959694;28;20026;-67
2023/03/17 02:52:57;;;;;;;14.82;2.42;;;;;;;;;;4955455;28;20508;-66
2023/03/17 02:55:25;;;;;;;11.55;2.22;;;;;;;;;;4960679;28;20030;-66
2023/03/17 02:57:53;;;;;;;11.20;2.33;;;;;;;;;;4943055;28;20047;-67
2023/03/17 03:00:21;;;;;;;11.43;2.00;;;;;;;;;;4959638;28;20375;-68
2023/03/17 03:02:47;;;;;;;13.07;1.80;;;;;;;;;;4954001;28;20039;-67
2023/03/17 03:05:14;;;;;;;8.85;1.90;;;;;;;;;;4959636;28;20522;-67
2023/03/17 03:07:42;;;;;;;8.65;1.60;;;;;;;;;;4937652;28;20073;-67
2023/03/17 03:10:11;;;;;;;9.00;2.08;;;;;;;;;;4963070;28;20030;-68
2023/03/17 03:12:39;;;;;;;9.38;2.00;;;;;;;;;;4957937;28;22341;-67
2023/03/17 03:15:08;;;;;;;10.55;2.05;;;;;;;;;;4961167;28;20034;-67
2023/03/17 03:17:35;;;;;;;10.27;2.33;;;;;;;;;;4957249;28;20564;-67
2023/03/17 03:20:02;;;;;;;11.82;2.10;;;;;;;;;;4962031;28;20365;-67
2023/03/17 03:22:29;;;;;;;11.90;1.92;;;;;;;;;;4956190;28;20588;-67
2023/03/17 03:24:57;;;;;;;11.10;2.20;;;;;;;;;;4942939;28;20661;-67
2023/03/17 03:27:24;;;;;;;10.10;2.13;;;;;;;;;;4958769;28;20120;-66
2023/03/17 03:29:52;;;;;;;11.93;2.63;;;;;;;;;;4961596;28;20041;-67
2023/03/17 03:32:19;;;;;;;9.13;2.28;;;;;;;;;;4957973;28;20071;-67
2023/03/17 03:34:46;;;;;;;11.60;2.35;;;;;;;;;;4959660;28;20383;-67
2023/03/17 03:37:14;;;;;;;10.90;2.17;;;;;;;;;;4938723;28;20129;-67
2023/03/17 03:39:42;;;;;;;7.85;1.50;;;;;;;;;;4932976;28;20143;-67
2023/03/17 03:42:10;;;;;;;9.45;1.90;;;;;;;;;;4959977;28;20556;-67
2023/03/17 03:44:37;;;;;;;7.65;1.52;;;;;;;;;;4955706;28;20109;-67
2023/03/17 03:47:05;;;;;;;7.63;1.40;;;;;;;;;;4959863;28;20488;-67
2023/03/17 03:49:32;;;;;;;10.23;1.75;;;;;;;;;;4958071;28;20049;-67
2023/03/17 03:52:00;;;;;;;8.90;1.77;;;;;;;;;;4963115;28;20026;-67
2023/03/17 03:54:27;;;;;;;8.85;1.60;;;;;;;;;;4958987;28;20042;-67
2023/03/17 03:56:56;;;;;;;7.88;1.58;;;;;;;;;;4961928;28;20669;-66
2023/03/17 03:59:23;;;;;;;9.65;1.50;;;;;;;;;;4960828;28;20110;-66
2023/03/17 04:01:50;;;;;;;10.07;1.70;;;;;;;;;;4962134;28;20042;-66
2023/03/17 04:04:18;;;;;;;9.82;1.58;;;;;;;;;;4960407;28;20906;-66
2023/03/17 04:06:45;;;;;;;10.07;2.00;;;;;;;;;;4964401;28;20535;-66
2023/03/17 04:09:13;;;;;;;9.80;1.65;;;;;;;;;;4955571;28;20444;-67
2023/03/17 04:11:42;;;;;;;7.40;1.58;;;;;;;;;;4954117;28;20200;-66
2023/03/17 04:14:09;;;;;;;7.35;1.60;;;;;;;;;;4961203;28;20038;-67
2023/03/17 04:16:37;;;;;;;10.88;1.63;;;;;;;;;;4942880;28;20693;-67
2023/03/17 04:19:03;;;;;;;8.23;1.52;;;;;;;;;;4960652;28;20351;-67
2023/03/17 04:21:30;;;;;;;11.20;1.65;;;;;;;;;;4956687;28;20066;-67
2023/03/17 04:23:58;;;;;;;10.93;1.70;;;;;;;;;;4960126;28;20034;-67
2023/03/17 04:26:25;;;;;;;9.23;1.70;;;;;;;;;;4956907;28;20271;-67
2023/03/17 04:28:53;;;;;;;9.07;1.63;;;;;;;;;;4960776;28;20153;-67
2023/03/17 04:31:20;;;;;;;9.55;1.83;;;;;;;;;;4952919;28;20335;-69
2023/03/17 04:33:48;;;;;;;10.85;1.90;;;;;;;;;;4961125;28;20189;-67
2023/03/17 04:36:19;;;;;;;9.63;1.77;;;;;;;;;;4960762;28;20130;-67
2023/03/17 04:38:46;;;;;;;9.35;1.77;;;;;;;;;;4957338;28;20438;-67
2023/03/17 04:41:14;;;;;;;9.82;1.80;;;;;;;;;;4961991;28;20066;-67
2023/03/17 04:43:41;;;;;;;8.13;1.85;;;;;;;;;;4956878;28;20788;-67
2023/03/17 04:46:09;;;;;;;7.35;1.17;;;;;;;;;;4960533;28;20058;-67
2023/03/17 04:48:37;;;;;;;11.95;1.85;;;;;;;;;;4956392;28;20030;-66
2023/03/17 04:51:05;;;;;;;8.68;1.75;;;;;;;;;;4955008;28;20026;-67
2023/03/17 04:53:33;;;;;;;11.98;1.83;;;;;;;;;;4955035;28;20034;-67
2023/03/17 04:56:00;;;;;;;9.00;1.77;;;;;;;;;;4959199;28;20030;-67
2023/03/17 04:58:28;;;;;;;9.15;2.03;;;;;;;;;;4951519;28;20069;-67
2023/03/17 05:00:55;;;;;;;7.53;1.58;;;;;;;;;;4954948;28;20638;-67
2023/03/17 05:03:24;;;;;;;9.70;1.70;;;;;;;;;;4952178;28;20976;-67
2023/03/17 05:05:51;;;;;;;8.43;1.95;;;;;;;;;;4959051;28;20449;-67
2023/03/17 05:08:19;;;;;;;7.70;1.60;;;;;;;;;;4957950;28;20072;-67
2023/03/17 05:10:46;;;;;;;10.23;2.03;;;;;;;;;;4959308;28;20034;-67
2023/03/17 05:13:12;;;;;;;10.18;2.25;;;;;;;;;;4955222;28;20043;-67
2023/03/17 05:15:40;;;;;;;10.20;1.70;;;;;;;;;;4938306;28;20616;-67
2023/03/17 05:18:07;;;;;;;10.98;2.25;;;;;;;;;;4935938;28;20022;-67
2023/03/17 05:20:35;;;;;;;10.48;2.13;;;;;;;;;;4935965;28;20661;-66
2023/03/17 05:23:02;;;;;;;13.07;2.30;;;;;;;;;;4940659;28;21451;-67
2023/03/17 05:25:33;;;;;;;10.20;2.08;;;;;;;;;;4920432;28;20038;-66
2023/03/17 05:28:00;;;;;;;9.93;2.33;;;;;;;;;;4941280;28;20039;-66
2023/03/17 05:30:28;;;;;;;12.30;2.20;;;;;;;;;;4935857;28;20069;-69
2023/03/17 05:32:55;;;;;;;10.15;2.38;;;;;;;;;;4936633;28;20039;-67
2023/03/17 05:35:23;;;;;;;11.65;2.33;;;;;;;;;;4930676;28;20284;-67
2023/03/17 05:37:51;;;;;;;11.02;1.95;;;;;;;;;;4936550;28;20145;-67
2023/03/17 05:40:19;;;;;;;9.38;1.95;;;;;;;;;;4925258;28;20038;-67
2023/03/17 05:42:46;;;;;;;10.00;1.85;;;;;;;;;;4941442;28;20062;-67
2023/03/17 05:45:13;;;;;;;13.50;2.47;;;;;;;;;;4940420;28;20117;-67
2023/03/17 05:47:40;;;;;;;9.98;2.17;;;;;;;;;;4936751;28;20460;-67
2023/03/17 05:50:08;;;;;;;11.45;2.10;;;;;;;;;;4937076;28;20534;-67
2023/03/17 05:52:34;;;;;;;10.90;2.03;;;;;;;;;;4933818;28;20257;-67
2023/03/17 05:55:00;;;;;;;7.38;1.90;;;;;;;;;;4924240;28;20386;-68
2023/03/17 05:57:27;;;;;;;;;;;;;;;;;;4932826;28;20046;-68
2023/03/17 05:59:53;;;;;;;9.55;2.33;;;;;;;;;;4938447;28;19968;-67
2023/03/17 06:02:21;;;;;;;12.15;3.05;;;;;;;;;;4934876;28;20229;-67
2023/03/17 06:04:48;;;;;;;13.57;3.17;;;;;;;;;;4937059;28;20049;-67
2023/03/17 06:07:16;;;;;;;9.27;2.45;;;;;;;;;;4937667;28;20034;-66
2023/03/17 06:09:43;;;;;;;12.80;2.80;;;;;;;;;;4920753;28;20070;-68
2023/03/17 06:12:11;;;;;;;11.38;2.65;;;;;;;;;;4941517;28;20903;-68
2023/03/17 06:14:37;;;;;;;13.23;2.65;;;;;;;;;;4948644;28;20482;-70
2023/03/17 06:17:05;;;;;;;12.65;2.72;;;;;;;;;;4965844;28;20030;-68
2023/03/17 06:19:32;;;;;;;13.35;2.60;;;;;;;;;;4933574;28;20041;-67
2023/03/17 06:22:00;;;;;;;10.35;2.50;;;;;;;;;;4963972;28;20102;-68
2023/03/17 06:24:27;;;;;;;15.07;2.80;;;;;;;;;;4958981;28;20475;-67
2023/03/17 06:26:54;;;;;;;15.95;3.83;;;;;;;;;;4957110;28;20232;-67
2023/03/17 06:29:22;;;;;;;14.55;4.13;;;;;;;;;;4932198;28;20042;-67
2023/03/17 06:31:50;;;;;;;12.73;3.40;;;;;;;;;;4958606;28;20114;-68
2023/03/17 06:34:18;;;;;;;17.10;3.40;;;;;;;;;;4960268;28;20061;-67
2023/03/17 06:36:46;;;;;;;17.90;3.58;;;;;;;;;;4950838;28;20117;-67
2023/03/17 06:39:14;;;;;;;14.95;2.85;;;;;;;;;;4938007;28;20355;-67
2023/03/17 06:41:42;;;;;;;21.00;3.72;;;;;;;;;;4955605;28;20038;-67
2023/03/17 06:44:10;;;;;;;17.65;3.78;;;;;;;;;;4959597;28;20618;-67
2023/03/17 06:46:37;;;;;;;20.27;3.97;;;;;;;;;;4953285;28;20027;-67
2023/03/17 06:49:03;;;;;;;34.65;4.40;;;;;;;;;;4957194;28;20450;-66
2023/03/17 06:51:31;;;;;;;;;;;;;;;;;;4955712;28;20141;-67
2023/03/17 06:53:58;;;;;;;20.83;3.88;;;;;;;;;;4957564;28;19913;-68
2023/03/17 06:56:25;;;;;;;13.77;3.03;;;;;;;;;;4952209;28;20018;-68
2023/03/17 06:58:53;;;;;;;19.20;3.67;;;;;;;;;;4956495;28;20034;-68
2023/03/17 07:01:21;;;;;;;18.10;3.70;;;;;;;;;;4940012;28;20061;-68
2023/03/17 07:03:49;;;;;;;16.23;3.33;;;;;;;;;;4941094;28;20174;-68
2023/03/17 07:06:16;;;;;;;19.10;4.38;;;;;;;;;;4959947;28;20571;-68
2023/03/17 07:08:45;;;;;;;16.73;4.05;;;;;;;;;;4954821;28;20725;-68
2023/03/17 07:11:13;;;;;;;16.90;4.32;;;;;;;;;;4959471;28;20046;-69
2023/03/17 07:13:40;;;;;;;16.67;3.95;;;;;;;;;;4938814;28;20543;-66
2023/03/17 07:16:07;;;;;;;16.98;3.75;;;;;;;;;;4959395;28;20023;-67
2023/03/17 07:18:34;;;;;;;20.42;3.35;;;;;;;;;;4962460;28;20354;-67
2023/03/17 07:21:02;;;;;;;19.20;3.63;;;;;;;;;;4967354;28;20037;-67
2023/03/17 07:23:30;;;;;;;15.20;3.13;;;;;;;;;;4959588;28;20208;-67
2023/03/17 07:25:57;;;;;;;49.22;6.72;;;;;;;;;;4965485;28;20376;-67
2023/03/17 07:28:23;;;;;;;48.22;7.45;;;;;;;;;;4960040;28;20054;-67
2023/03/17 07:30:51;;;;;;;32.38;5.03;;;;;;;;;;4962845;28;20446;-67
2023/03/17 07:33:21;;;;;;;24.13;4.05;;;;;;;;;;4965788;28;20042;-67
2023/03/17 07:35:49;;;;;;;22.50;4.22;;;;;;;;;;4963138;28;20026;-67
2023/03/17 07:38:18;;;;;;;16.77;3.60;;;;;;;;;;4962069;28;20053;-68
2023/03/17 07:40:47;;;;;;;20.15;3.45;;;;;;;;;;4959492;28;20106;-67
2023/03/17 07:43:18;;;;;;;15.35;3.55;;;;;;;;;;4939737;28;20149;-68
2023/03/17 07:45:46;;;;;;;16.92;3.67;;;;;;;;;;4958361;28;20023;-68
2023/03/17 07:48:15;;;;;;;20.05;3.85;;;;;;;;;;4960598;28;20144;-67
2023/03/17 07:50:43;;;;;;;22.25;4.97;;;;;;;;;;4954063;28;20085;-68
2023/03/17 07:53:10;;;;;;;22.67;4.90;;;;;;;;;;4958205;28;20030;-68
2023/03/17 07:55:37;;;;;;;15.18;3.53;;;;;;;;;;4954942;28;20068;-68
2023/03/17 07:58:06;;;;;;;20.05;4.32;;;;;;;;;;4959476;28;20040;-68
2023/03/17 08:00:33;;;;;;;21.75;4.00;;;;;;;;;;4961143;28;20042;-68
2023/03/17 08:02:59;;;;;;;21.42;4.22;;;;;;;;;;4956018;28;20454;-68
2023/03/17 08:05:26;;;;;;;16.52;3.75;;;;;;;;;;4953674;28;20030;-68
2023/03/17 08:07:54;;;;;;;17.58;3.75;;;;;;;;;;4961326;28;20030;-68
2023/03/17 08:10:21;;;;;;;30.52;4.70;;;;;;;;;;4954800;28;20031;-68
2023/03/17 08:12:50;;;;;;;20.58;4.00;;;;;;;;;;4958454;28;20280;-69
2023/03/17 08:15:18;;;;;;;21.67;4.53;;;;;;;;;;4960097;28;20092;-68
2023/03/17 08:17:45;;;;;;;17.63;4.13;;;;;;;;;;4958832;28;20029;-68
2023/03/17 08:20:13;;;;;;;16.92;4.40;;;;;;;;;;4943964;28;20038;-68
2023/03/17 08:22:40;;;;;;;17.73;4.13;;;;;;;;;;4957850;28;20082;-68
2023/03/17 08:25:08;;;;;;;24.10;4.90;;;;;;;;;;4957871;28;20133;-68
2023/03/17 08:27:35;;;;;;;25.92;4.80;;;;;;;;;;4954996;28;20034;-68
2023/03/17 08:30:03;;;;;;;18.23;4.10;;;;;;;;;;4963738;28;20057;-68
2023/03/17 08:32:30;;;;;;;17.08;3.58;;;;;;;;;;4938988;28;20400;-70
2023/03/17 08:34:58;;;;;;;20.70;4.43;;;;;;;;;;4958135;28;20554;-68
2023/03/17 08:37:25;;;;;;;24.13;4.35;;;;;;;;;;4961178;28;20694;-68
2023/03/17 08:39:53;;;;;;;23.08;4.57;;;;;;;;;;4959492;28;20035;-67
2023/03/17 08:42:20;;;;;;;17.08;3.58;;;;;;;;;;4955401;28;20154;-68
2023/03/17 08:44:47;;;;;;;20.58;3.90;;;;;;;;;;4962735;28;20076;-68
2023/03/17 08:47:14;;;;;;;20.17;4.68;;;;;;;;;;4960011;28;20579;-68
2023/03/17 08:49:41;;;;;;;21.75;4.07;;;;;;;;;;4953654;28;20041;-68
2023/03/17 08:52:08;;;;;;;17.20;4.00;;;;;;;;;;4957124;28;20109;-68
2023/03/17 08:54:36;;;;;;;19.92;4.78;;;;;;;;;;4955858;28;20148;-68
2023/03/17 08:57:03;;;;;;;21.05;4.15;;;;;;;;;;4958875;28;20336;-68
2023/03/17 08:59:30;;;;;;;14.35;3.45;;;;;;;;;;4937422;28;20042;-68
2023/03/17 09:01:58;;;;;;;20.45;4.65;;;;;;;;;;4961182;28;20026;-68
2023/03/17 09:04:26;;;;;;;17.05;4.00;;;;;;;;;;4941292;28;20062;-69
2023/03/17 09:06:53;;;;;;;19.90;4.20;;;;;;;;;;4961012;28;20145;-68
2023/03/17 09:09:22;;;;;;;20.00;4.22;;;;;;;;;;4955019;28;20451;-69
2023/03/17 09:11:50;;;;;;;14.48;3.85;;;;;;;;;;4942061;28;20495;-67
2023/03/17 09:14:17;;;;;;;15.45;3.80;;;;;;;;;;4954600;28;20520;-67
2023/03/17 09:16:47;;;;;;;22.15;4.05;;;;;;;;;;4939988;28;20585;-67
2023/03/17 09:19:15;;;;;;;16.80;3.78;;;;;;;;;;4963310;28;20471;-67
2023/03/17 09:21:42;;;;;;;18.27;3.90;;;;;;;;;;4977328;28;20145;-68
2023/03/17 09:24:10;;;;;;;18.38;4.35;;;;;;;;;;4977339;28;20053;-67
2023/03/17 09:26:37;;;;;;;20.85;3.97;;;;;;;;;;4979859;28;20030;-67
2023/03/17 09:29:06;;;;;;;14.88;4.30;;;;;;;;;;4960594;28;20239;-67
2023/03/17 09:31:37;;;;;;;17.10;3.70;;;;;;;;;;4973664;28;20434;-67
2023/03/17 09:34:05;;;;;;;14.10;3.65;;;;;;;;;;4982495;28;20061;-68
2023/03/17 09:36:33;;;;;;;13.77;3.90;;;;;;;;;;4977018;28;21368;-68
2023/03/17 09:39:02;;;;;;;13.75;3.67;;;;;;;;;;4982563;28;20037;-68
2023/03/17 09:41:48;;;;;;;13.55;3.45;;;;;;;;;;4977656;28;20022;-68
2023/03/17 09:44:36;;;;;;;15.00;3.90;;;;;;;;;;4979510;28;20038;-67
2023/03/17 09:47:21;;;;;;;17.65;4.28;;;;;;;;;;4959025;28;20042;-67
2023/03/17 09:49:51;;;;;;;17.48;3.95;;;;;;;;;;4980238;28;20477;-67
2023/03/17 09:52:22;;;;;;;15.32;3.63;;;;;;;;;;4977751;28;20066;-67
2023/03/17 09:54:50;;;;;;;17.70;3.97;;;;;;;;;;4960638;28;20030;-68
2023/03/17 09:57:38;;;;;;;15.38;4.10;;;;;;;;;;4981414;28;20145;-68
2023/03/17 10:00:18;;;;;;;15.88;4.25;;;;;;;;;;4978164;28;20074;-68
2023/03/17 10:02:46;;;;;;;14.75;3.58;;;;;;;;;;4977091;28;20254;-68
2023/03/17 10:05:31;;;;;;;12.85;3.17;;;;;;;;;;4976150;28;20050;-68
2023/03/17 10:07:57;;;;;;;16.30;4.28;;;;;;;;;;4978402;28;20096;-67
2023/03/17 10:10:38;;;;;;;19.58;3.92;;;;;;;;;;4973097;28;20037;-68
2023/03/17 10:13:23;;;;;;;18.13;4.00;;;;;;;;;;4960996;28;20182;-67
2023/03/17 10:15:52;;;;;;;13.50;3.65;;;;;;;;;;4973259;28;20038;-69
2023/03/17 10:18:23;;;;;;;15.38;3.67;;;;;;;;;;4965926;28;20046;-69
2023/03/17 10:20:56;;;;;;;13.77;3.30;;;;;;;;;;4976584;28;20388;-67
2023/03/17 10:23:26;;;;;;;19.10;4.07;;;;;;;;;;4974786;28;20030;-69
2023/03/17 10:25:54;;;;;;;17.95;4.20;;;;;;;;;;4982730;28;20590;-68
2023/03/17 10:28:35;;;;;;;19.20;4.07;;;;;;;;;;4976490;28;20025;-69
2023/03/17 10:31:14;;;;;;;20.77;4.78;;;;;;;;;;4981200;28;20380;-69
2023/03/17 10:33:41;;;;;;;18.83;4.05;;;;;;;;;;4974090;28;20030;-69
2023/03/17 10:36:09;;;;;;;18.48;3.85;;;;;;;;;;4981191;28;20069;-69
2023/03/17 10:38:36;;;;;;;13.32;3.20;;;;;;;;;;4976887;28;20451;-70
2023/03/17 10:41:08;;;;;;;16.70;3.78;;;;;;;;;;4961767;28;20065;-69
2023/03/17 10:43:43;;;;;;;15.27;3.63;;;;;;;;;;4975304;28;20992;-68
2023/03/17 10:46:36;;;;;;;14.68;3.45;;;;;;;;;;4980075;28;20434;-68
2023/03/17 10:49:08;;;;;;;23.52;4.85;;;;;;;;;;4963027;28;20093;-68
2023/03/17 10:51:36;;;;;;;13.18;3.20;;;;;;;;;;4958395;28;20615;-68
2023/03/17 10:54:08;;;;;;;14.70;3.53;;;;;;;;;;4977998;28;20046;-68
2023/03/17 10:56:41;;;;;;;11.80;3.08;;;;;;;;;;4955140;28;20038;-68
2023/03/17 10:59:18;;;;;;;18.63;4.05;;;;;;;;;;4965016;28;20503;-68
2023/03/17 11:01:57;;;;;;;16.63;3.95;;;;;;;;;;4979249;28;20038;-68
2023/03/17 11:04:26;;;;;;;15.27;3.67;;;;;;;;;;4977622;28;20184;-68
2023/03/17 11:06:55;;;;;;;15.48;3.70;;;;;;;;;;4977004;28;20085;-68
2023/03/17 11:09:22;;;;;;;14.85;3.55;;;;;;;;;;4977562;28;20034;-68
2023/03/17 11:11:59;;;;;;;17.08;3.55;;;;;;;;;;4980898;28;20053;-68
2023/03/17 11:14:27;;;;;;;28.77;6.32;;;;;;;;;;4978166;28;20783;-69
2023/03/17 11:16:59;;;;;;;20.48;4.85;;;;;;;;;;4966972;28;20621;-69
2023/03/17 11:19:47;;;;;;;28.45;4.72;;;;;;;;;;4980885;28;20046;-68
2023/03/17 11:22:30;;;;;;;16.42;3.50;;;;;;;;;;4982519;28;20044;-69
2023/03/17 11:25:11;;;;;;;17.77;3.70;;;;;;;;;;4982118;28;20032;-69
2023/03/17 11:28:01;;;;;;;16.00;3.55;;;;;;;;;;4976290;28;20232;-69
2023/03/17 11:30:34;;;;;;;18.02;4.28;;;;;;;;;;4975401;28;20037;-69
2023/03/17 11:33:25;;;;;;;17.65;4.28;;;;;;;;;;4962455;28;20088;-69
2023/03/17 11:36:04;;;;;;;15.65;3.83;;;;;;;;;;4976069;28;20116;-69
2023/03/17 11:38:46;;;;;;;19.23;3.60;;;;;;;;;;4975940;28;20022;-69
2023/03/17 11:41:29;;;;;;;17.55;3.75;;;;;;;;;;4963665;28;20088;-69
2023/03/17 11:44:21;;;;;;;18.40;3.78;;;;;;;;;;4965757;28;20463;-69
2023/03/17 11:46:59;;;;;;;19.05;3.80;;;;;;;;;;4959229;28;20503;-69
2023/03/17 11:49:36;;;;;;;19.80;4.15;;;;;;;;;;4939682;28;20043;-69
2023/03/17 11:52:11;;;;;;;20.80;3.92;;;;;;;;;;4942599;28;20074;-68
2023/03/17 11:54:51;;;;;;;19.30;4.05;;;;;;;;;;4939257;28;20413;-69
2023/03/17 11:57:24;;;;;;;15.85;3.40;;;;;;;;;;4961507;28;20156;-69
2023/03/17 12:00:08;;;;;;;16.90;3.55;;;;;;;;;;4952291;28;20492;-69
2023/03/17 12:02:50;;;;;;;15.63;3.28;;;;;;;;;;4941963;28;20331;-68
2023/03/17 12:05:28;;;;;;;13.38;3.30;;;;;;;;;;4958159;28;20030;-68
2023/03/17 12:08:13;;;;;;;12.82;3.35;;;;;;;;;;4954391;28;20478;-68
2023/03/17 12:10:44;;;;;;;17.88;4.03;;;;;;;;;;4938930;28;20037;-68
2023/03/17 12:13:13;;;;;;;13.40;3.35;;;;;;;;;;4955160;28;20042;-69
2023/03/17 12:15:42;;;;;;;16.25;3.17;;;;;;;;;;4955352;28;20291;-70
2023/03/17 12:18:08;;;;;;;13.57;3.53;;;;;;;;;;4952802;28;20065;-69
2023/03/17 12:20:49;;;;;;;14.50;3.70;;;;;;;;;;4973610;28;20038;-69
2023/03/17 12:23:37;;;;;;;16.08;4.18;;;;;;;;;;4978435;28;20136;-69
2023/03/17 12:26:12;;;;;;;16.77;3.78;;;;;;;;;;4978542;28;20029;-69
2023/03/17 12:29:00;;;;;;;14.65;3.67;;;;;;;;;;4974613;28;21853;-69
2023/03/17 12:31:38;;;;;;;19.58;4.38;;;;;;;;;;4976814;28;20029;-69
2023/03/17 12:34:20;;;;;;;17.25;3.88;;;;;;;;;;4958091;28;20045;-69
2023/03/17 12:36:47;;;;;;;20.25;4.03;;;;;;;;;;4982264;28;20441;-69
2023/03/17 12:39:17;;;;;;;15.65;4.13;;;;;;;;;;4980555;28;20484;-69
2023/03/17 12:41:58;;;;;;;14.23;3.55;;;;;;;;;;4978338;28;20391;-70
2023/03/17 12:44:30;;;;;;;13.68;3.58;;;;;;;;;;4975570;28;20514;-69
2023/03/17 12:47:12;;;;;;;13.93;3.53;;;;;;;;;;4980694;28;20040;-70
2023/03/17 12:49:50;;;;;;;14.65;3.78;;;;;;;;;;4976468;28;21178;-70
2023/03/17 12:52:52;;;;;;;17.00;4.05;;;;;;;;;;4980782;28;20060;-71
2023/03/17 12:55:22;;;;;;;16.92;4.55;;;;;;;;;;4920220;28;20481;-70
2023/03/17 12:58:00;;;;;;;14.10;4.07;;;;;;;;;;4920573;28;20131;-69
2023/03/17 13:00:30;;;;;;;21.42;6.78;;;;;;;;;;4920081;28;20303;-69
2023/03/17 13:03:15;;;;;;;16.60;5.25;;;;;;;;;;4920901;28;20047;-69
2023/03/17 13:05:47;;;;;;;14.73;4.03;;;;;;;;;;4921907;28;20020;-70
2023/03/17 13:08:20;;;;;;;15.07;3.97;;;;;;;;;;4918478;28;20043;-68
2023/03/17 13:10:49;;;;;;;15.57;3.67;;;;;;;;;;4923299;28;20039;-70
2023/03/17 13:13:35;;;;;;;16.70;4.00;;;;;;;;;;4922333;28;20571;-68
2023/03/17 13:16:04;;;;;;;15.00;4.60;;;;;;;;;;4920288;28;20043;-69
2023/03/17 13:18:52;;;;;;;15.13;3.85;;;;;;;;;;4917322;28;20543;-70
2023/03/17 13:21:19;;;;;;;17.67;3.70;;;;;;;;;;4922713;28;20042;-69
2023/03/17 13:23:48;;;;;;;16.92;5.63;;;;;;;;;;4922880;28;20058;-69
2023/03/17 13:26:20;;;;;;;14.13;3.90;;;;;;;;;;4922571;28;20035;-69
2023/03/17 13:28:50;;;;;;;19.80;4.30;;;;;;;;;;4935601;28;20062;-69
2023/03/17 13:31:36;;;;;;;16.70;3.78;;;;;;;;;;4980075;28;20032;-70
2023/03/17 13:34:11;;;;;;;15.10;3.85;;;;;;;;;;4981811;28;20029;-69
2023/03/17 13:36:57;;;;;;;14.95;4.85;;;;;;;;;;4975558;28;21017;-69
2023/03/17 13:39:45;;;;;;;15.27;4.30;;;;;;;;;;4973962;28;20798;-71
2023/03/17 13:42:30;;;;;;;17.17;4.00;;;;;;;;;;4978581;28;20894;-70
2023/03/17 13:45:06;;;;;;;15.23;4.88;;;;;;;;;;4974996;28;20037;-70
2023/03/17 13:47:37;;;;;;;17.45;4.97;;;;;;;;;;4974593;28;20436;-70
2023/03/17 13:50:12;;;;;;;14.25;3.88;;;;;;;;;;4978262;28;20089;-70
2023/03/17 13:52:47;;;;;;;15.43;3.78;;;;;;;;;;4974963;28;20796;-70
2023/03/17 13:55:24;;;;;;;15.88;3.60;;;;;;;;;;4958699;28;20570;-70
2023/03/17 13:58:08;;;;;;;16.35;3.53;;;;;;;;;;4975728;28;20068;-69
2023/03/17 14:00:41;;;;;;;17.38;3.63;;;;;;;;;;4972314;28;20410;-71
2023/03/17 14:03:27;;;;;;;19.33;3.65;;;;;;;;;;4977399;28;20065;-69
2023/03/17 14:05:57;;;;;;;14.60;4.15;;;;;;;;;;4975217;28;20500;-71
2023/03/17 14:08:51;;;;;;;15.88;4.18;;;;;;;;;;4974778;28;20536;-70
2023/03/17 14:11:36;;;;;;;12.70;4.30;;;;;;;;;;4979628;28;20368;-70
2023/03/17 14:14:21;;;;;;;18.50;4.18;;;;;;;;;;4980583;28;20034;-70
2023/03/17 14:17:07;;;;;;;17.70;3.67;;;;;;;;;;4978374;28;20022;-70
2023/03/17 14:19:33;;;;;;;14.55;3.45;;;;;;;;;;4976742;28;20073;-71
2023/03/17 14:22:18;;;;;;;14.40;3.78;;;;;;;;;;4978694;28;20042;-71
2023/03/17 14:24:45;;;;;;;14.18;3.35;;;;;;;;;;4979184;28;20030;-70
2023/03/17 14:27:13;;;;;;;12.15;3.17;;;;;;;;;;4976058;28;20037;-70
2023/03/17 14:29:42;;;;;;;18.92;3.60;;;;;;;;;;4981559;28;20038;-70
2023/03/17 14:32:13;;;;;;;14.18;4.20;;;;;;;;;;4975943;28;20029;-70
2023/03/17 14:34:58;;;;;;;14.40;3.75;;;;;;;;;;4973841;28;21246;-70
2023/03/17 14:37:27;;;;;;;14.15;3.67;;;;;;;;;;4944375;28;20870;-70
2023/03/17 14:39:56;;;;;;;12.32;3.50;;;;;;;;;;4955402;28;20566;-70
2023/03/17 14:42:28;;;;;;;13.80;4.07;;;;;;;;;;4975967;28;20034;-70
2023/03/17 14:45:05;;;;;;;17.05;5.13;;;;;;;;;;4977682;28;20461;-68
2023/03/17 14:47:38;;;;;;;16.35;5.53;;;;;;;;;;4956295;28;20868;-70
2023/03/17 14:50:12;;;;;;;26.40;7.72;;;;;;;;;;4962282;28;20034;-71
2023/03/17 14:52:40;;;;;;;22.75;7.72;;;;;;;;;;4972343;28;20139;-70
2023/03/17 14:55:07;;;;;;;23.42;7.22;;;;;;;;;;4974112;28;20018;-69